sensor_id;sensor_type;location;lat;lon;timestamp;P1;durP1;ratioP1;P2;durP2;ratioP2
74541;SDS011;63015;45.378;20.360;2023-03-29T00:00:30;3.83;;;1.83;;
74541;SDS011;63015;45.378;20.360;2023-03-29T00:02:31;5.45;;;2.35;;
74541;SDS011;63015;45.378;20.360;2023-03-29T00:04:32;4.18;;;1.42;;
74541;SDS011;63015;45.378;20.360;2023-03-29T00:06:33;4.35;;;1.88;;
74541;SDS011;63015;45.378;20.360;2023-03-29T00:08:33;5.63;;;2.33;;
74541;SDS011;63015;45.378;20.360;2023-03-29T00:10:34;6.95;;;2.55;;
74541;SDS011;63015;45.378;20.360;2023-03-29T00:12:35;3.67;;;1.70;;
74541;SDS011;63015;45.378;20.360;2023-03-29T00:14:37;4.65;;;1.85;;
74541;SDS011;63015;45.378;20.360;2023-03-29T00:16:37;8.20;;;2.17;;
74541;SDS011;63015;45.378;20.360;2023-03-29T00:18:38;2.88;;;1.00;;
74541;SDS011;63015;45.378;20.360;2023-03-29T00:20:39;4.72;;;2.58;;
74541;SDS011;63015;45.378;20.360;2023-03-29T00:22:40;6.15;;;1.80;;
74541;SDS011;63015;45.378;20.360;2023-03-29T00:24:41;6.65;;;2.65;;
74541;SDS011;63015;45.378;20.360;2023-03-29T00:26:41;4.15;;;1.65;;
74541;SDS011;63015;45.378;20.360;2023-03-29T00:28:42;4.20;;;1.95;;
74541;SDS011;63015;45.378;20.360;2023-03-29T00:30:42;4.68;;;1.80;;
74541;SDS011;63015;45.378;20.360;2023-03-29T00:32:43;4.13;;;1.55;;
74541;SDS011;63015;45.378;20.360;2023-03-29T00:34:43;4.63;;;1.52;;
74541;SDS011;63015;45.378;20.360;2023-03-29T00:36:45;4.75;;;1.60;;
74541;SDS011;63015;45.378;20.360;2023-03-29T00:38:49;3.83;;;1.63;;
74541;SDS011;63015;45.378;20.360;2023-03-29T00:40:50;11.18;;;1.98;;
74541;SDS011;63015;45.378;20.360;2023-03-29T00:42:51;4.70;;;2.03;;
74541;SDS011;63015;45.378;20.360;2023-03-29T00:47:10;5.55;;;2.03;;
74541;SDS011;63015;45.378;20.360;2023-03-29T00:49:12;3.38;;;1.50;;
74541;SDS011;63015;45.378;20.360;2023-03-29T00:51:13;4.63;;;1.63;;
74541;SDS011;63015;45.378;20.360;2023-03-29T00:53:20;7.65;;;2.28;;
74541;SDS011;63015;45.378;20.360;2023-03-29T00:55:26;6.75;;;2.40;;
74541;SDS011;63015;45.378;20.360;2023-03-29T00:57:31;4.55;;;1.63;;
74541;SDS011;63015;45.378;20.360;2023-03-29T00:59:33;6.03;;;2.20;;
74541;SDS011;63015;45.378;20.360;2023-03-29T01:01:42;3.00;;;1.20;;
74541;SDS011;63015;45.378;20.360;2023-03-29T01:03:48;6.63;;;2.33;;
74541;SDS011;63015;45.378;20.360;2023-03-29T01:05:57;4.18;;;1.65;;
74541;SDS011;63015;45.378;20.360;2023-03-29T01:08:05;8.25;;;2.03;;
74541;SDS011;63015;45.378;20.360;2023-03-29T01:10:13;7.47;;;1.95;;
74541;SDS011;63015;45.378;20.360;2023-03-29T01:12:20;4.80;;;1.92;;
74541;SDS011;63015;45.378;20.360;2023-03-29T01:14:32;3.97;;;1.40;;
74541;SDS011;63015;45.378;20.360;2023-03-29T01:16:38;5.50;;;2.13;;
74541;SDS011;63015;45.378;20.360;2023-03-29T01:18:39;6.43;;;2.95;;
74541;SDS011;63015;45.378;20.360;2023-03-29T01:22:53;8.02;;;3.00;;
74541;SDS011;63015;45.378;20.360;2023-03-29T01:29:55;12.88;;;4.30;;
74541;SDS011;63015;45.378;20.360;2023-03-29T01:34:36;9.85;;;1.65;;
74541;SDS011;63015;45.378;20.360;2023-03-29T01:36:47;9.77;;;2.45;;
74541;SDS011;63015;45.378;20.360;2023-03-29T01:38:58;7.10;;;2.92;;
74541;SDS011;63015;45.378;20.360;2023-03-29T01:50:26;12.75;;;2.90;;
74541;SDS011;63015;45.378;20.360;2023-03-29T01:52:14;6.82;;;3.47;;
74541;SDS011;63015;45.378;20.360;2023-03-29T01:54:21;10.23;;;4.18;;
74541;SDS011;63015;45.378;20.360;2023-03-29T01:56:29;16.05;;;5.43;;
74541;SDS011;63015;45.378;20.360;2023-03-29T01:58:37;14.23;;;5.05;;
74541;SDS011;63015;45.378;20.360;2023-03-29T02:00:41;19.67;;;5.65;;
74541;SDS011;63015;45.378;20.360;2023-03-29T02:02:44;14.70;;;5.90;;
74541;SDS011;63015;45.378;20.360;2023-03-29T02:04:48;18.42;;;6.28;;
74541;SDS011;63015;45.378;20.360;2023-03-29T02:06:52;15.50;;;5.65;;
74541;SDS011;63015;45.378;20.360;2023-03-29T02:08:54;22.38;;;7.75;;
74541;SDS011;63015;45.378;20.360;2023-03-29T02:10:55;19.83;;;8.05;;
74541;SDS011;63015;45.378;20.360;2023-03-29T02:12:56;26.65;;;9.75;;
74541;SDS011;63015;45.378;20.360;2023-03-29T02:14:58;20.48;;;8.77;;
74541;SDS011;63015;45.378;20.360;2023-03-29T02:17:21;24.80;;;9.73;;
74541;SDS011;63015;45.378;20.360;2023-03-29T02:19:23;20.80;;;8.02;;
74541;SDS011;63015;45.378;20.360;2023-03-29T02:21:25;15.50;;;6.93;;
74541;SDS011;63015;45.378;20.360;2023-03-29T02:23:37;22.88;;;8.05;;
74541;SDS011;63015;45.378;20.360;2023-03-29T02:25:44;17.80;;;7.82;;
74541;SDS011;63015;45.378;20.360;2023-03-29T02:27:45;22.27;;;6.35;;
74541;SDS011;63015;45.378;20.360;2023-03-29T02:29:46;22.08;;;8.45;;
74541;SDS011;63015;45.378;20.360;2023-03-29T02:34:29;13.32;;;6.38;;
74541;SDS011;63015;45.378;20.360;2023-03-29T02:36:35;20.42;;;7.57;;
74541;SDS011;63015;45.378;20.360;2023-03-29T02:38:43;16.95;;;7.38;;
74541;SDS011;63015;45.378;20.360;2023-03-29T02:40:44;14.73;;;5.82;;
74541;SDS011;63015;45.378;20.360;2023-03-29T02:42:45;13.57;;;5.50;;
74541;SDS011;63015;45.378;20.360;2023-03-29T02:44:48;17.27;;;6.30;;
74541;SDS011;63015;45.378;20.360;2023-03-29T02:46:52;13.30;;;4.85;;
74541;SDS011;63015;45.378;20.360;2023-03-29T02:48:55;16.33;;;6.15;;
74541;SDS011;63015;45.378;20.360;2023-03-29T02:50:58;12.20;;;5.38;;
74541;SDS011;63015;45.378;20.360;2023-03-29T02:53:13;12.35;;;5.00;;
74541;SDS011;63015;45.378;20.360;2023-03-29T02:55:18;10.95;;;4.75;;
74541;SDS011;63015;45.378;20.360;2023-03-29T02:59:25;6.57;;;2.80;;
74541;SDS011;63015;45.378;20.360;2023-03-29T03:01:29;6.63;;;2.72;;
74541;SDS011;63015;45.378;20.360;2023-03-29T03:03:29;8.27;;;3.42;;
74541;SDS011;63015;45.378;20.360;2023-03-29T03:05:33;9.80;;;4.20;;
74541;SDS011;63015;45.378;20.360;2023-03-29T03:07:35;4.97;;;2.38;;
74541;SDS011;63015;45.378;20.360;2023-03-29T03:09:36;12.70;;;3.75;;
74541;SDS011;63015;45.378;20.360;2023-03-29T03:11:37;8.52;;;2.65;;
74541;SDS011;63015;45.378;20.360;2023-03-29T03:13:38;8.13;;;3.22;;
74541;SDS011;63015;45.378;20.360;2023-03-29T03:15:38;7.43;;;2.95;;
74541;SDS011;63015;45.378;20.360;2023-03-29T03:17:41;11.38;;;3.83;;
74541;SDS011;63015;45.378;20.360;2023-03-29T03:19:42;8.13;;;3.70;;
74541;SDS011;63015;45.378;20.360;2023-03-29T03:21:44;5.63;;;2.30;;
74541;SDS011;63015;45.378;20.360;2023-03-29T03:23:46;6.20;;;3.40;;
74541;SDS011;63015;45.378;20.360;2023-03-29T03:25:47;9.50;;;5.65;;
74541;SDS011;63015;45.378;20.360;2023-03-29T03:27:48;8.10;;;3.83;;
74541;SDS011;63015;45.378;20.360;2023-03-29T03:29:51;6.53;;;2.75;;
74541;SDS011;63015;45.378;20.360;2023-03-29T03:31:51;6.07;;;2.45;;
74541;SDS011;63015;45.378;20.360;2023-03-29T03:34:10;8.07;;;2.55;;
74541;SDS011;63015;45.378;20.360;2023-03-29T03:36:32;13.75;;;3.20;;
74541;SDS011;63015;45.378;20.360;2023-03-29T03:38:34;8.13;;;2.95;;
74541;SDS011;63015;45.378;20.360;2023-03-29T03:40:37;10.73;;;3.35;;
74541;SDS011;63015;45.378;20.360;2023-03-29T03:42:38;2.72;;;1.23;;
74541;SDS011;63015;45.378;20.360;2023-03-29T03:44:40;2.90;;;1.35;;
74541;SDS011;63015;45.378;20.360;2023-03-29T03:47:19;5.22;;;2.40;;
74541;SDS011;63015;45.378;20.360;2023-03-29T03:49:20;6.10;;;2.40;;
74541;SDS011;63015;45.378;20.360;2023-03-29T03:51:22;7.88;;;2.35;;
74541;SDS011;63015;45.378;20.360;2023-03-29T03:53:24;5.53;;;1.98;;
74541;SDS011;63015;45.378;20.360;2023-03-29T03:55:53;6.88;;;2.63;;
74541;SDS011;63015;45.378;20.360;2023-03-29T03:57:58;5.53;;;2.20;;
74541;SDS011;63015;45.378;20.360;2023-03-29T03:59:59;4.03;;;1.50;;
74541;SDS011;63015;45.378;20.360;2023-03-29T04:02:13;4.90;;;1.67;;
74541;SDS011;63015;45.378;20.360;2023-03-29T04:04:16;8.50;;;2.42;;
74541;SDS011;63015;45.378;20.360;2023-03-29T04:06:42;6.10;;;1.60;;
74541;SDS011;63015;45.378;20.360;2023-03-29T04:09:06;6.15;;;2.53;;
74541;SDS011;63015;45.378;20.360;2023-03-29T04:11:12;5.28;;;2.08;;
74541;SDS011;63015;45.378;20.360;2023-03-29T04:13:15;3.45;;;1.63;;
74541;SDS011;63015;45.378;20.360;2023-03-29T04:15:34;5.03;;;1.25;;
74541;SDS011;63015;45.378;20.360;2023-03-29T04:17:41;7.80;;;2.75;;
74541;SDS011;63015;45.378;20.360;2023-03-29T04:20:02;6.47;;;2.40;;
74541;SDS011;63015;45.378;20.360;2023-03-29T04:22:09;7.10;;;2.75;;
74541;SDS011;63015;45.378;20.360;2023-03-29T04:24:10;12.52;;;2.75;;
74541;SDS011;63015;45.378;20.360;2023-03-29T04:26:14;8.82;;;3.10;;
74541;SDS011;63015;45.378;20.360;2023-03-29T04:28:28;8.80;;;2.95;;
74541;SDS011;63015;45.378;20.360;2023-03-29T04:30:46;11.52;;;3.40;;
74541;SDS011;63015;45.378;20.360;2023-03-29T04:33:06;10.48;;;3.25;;
74541;SDS011;63015;45.378;20.360;2023-03-29T04:35:09;9.98;;;4.00;;
74541;SDS011;63015;45.378;20.360;2023-03-29T04:37:10;10.73;;;3.05;;
74541;SDS011;63015;45.378;20.360;2023-03-29T04:39:12;11.10;;;3.88;;
74541;SDS011;63015;45.378;20.360;2023-03-29T04:41:13;10.02;;;3.25;;
74541;SDS011;63015;45.378;20.360;2023-03-29T04:43:14;9.07;;;4.47;;
74541;SDS011;63015;45.378;20.360;2023-03-29T04:45:25;8.65;;;3.80;;
74541;SDS011;63015;45.378;20.360;2023-03-29T04:47:43;11.00;;;3.95;;
74541;SDS011;63015;45.378;20.360;2023-03-29T04:49:49;12.25;;;4.40;;
74541;SDS011;63015;45.378;20.360;2023-03-29T04:52:11;12.35;;;4.30;;
74541;SDS011;63015;45.378;20.360;2023-03-29T04:54:12;10.13;;;4.28;;
74541;SDS011;63015;45.378;20.360;2023-03-29T04:56:39;11.80;;;3.80;;
74541;SDS011;63015;45.378;20.360;2023-03-29T04:59:09;10.40;;;4.38;;
74541;SDS011;63015;45.378;20.360;2023-03-29T05:01:10;9.45;;;3.65;;
74541;SDS011;63015;45.378;20.360;2023-03-29T05:03:17;10.68;;;5.18;;
74541;SDS011;63015;45.378;20.360;2023-03-29T05:05:29;13.38;;;5.18;;
74541;SDS011;63015;45.378;20.360;2023-03-29T05:07:34;12.02;;;4.47;;
74541;SDS011;63015;45.378;20.360;2023-03-29T05:09:34;11.90;;;5.53;;
74541;SDS011;63015;45.378;20.360;2023-03-29T05:11:36;8.10;;;4.05;;
74541;SDS011;63015;45.378;20.360;2023-03-29T05:13:37;10.32;;;3.15;;
74541;SDS011;63015;45.378;20.360;2023-03-29T05:15:38;8.68;;;3.10;;
74541;SDS011;63015;45.378;20.360;2023-03-29T05:17:39;10.30;;;3.75;;
74541;SDS011;63015;45.378;20.360;2023-03-29T05:19:44;9.27;;;3.53;;
74541;SDS011;63015;45.378;20.360;2023-03-29T05:21:45;8.60;;;3.08;;
74541;SDS011;63015;45.378;20.360;2023-03-29T05:23:49;9.93;;;3.50;;
74541;SDS011;63015;45.378;20.360;2023-03-29T05:25:50;7.97;;;2.80;;
74541;SDS011;63015;45.378;20.360;2023-03-29T05:27:52;9.52;;;3.00;;
74541;SDS011;63015;45.378;20.360;2023-03-29T05:29:53;7.65;;;2.90;;
74541;SDS011;63015;45.378;20.360;2023-03-29T05:32:01;8.18;;;3.30;;
74541;SDS011;63015;45.378;20.360;2023-03-29T05:34:02;8.77;;;2.92;;
74541;SDS011;63015;45.378;20.360;2023-03-29T05:36:05;9.07;;;3.45;;
74541;SDS011;63015;45.378;20.360;2023-03-29T05:38:11;8.60;;;3.38;;
74541;SDS011;63015;45.378;20.360;2023-03-29T05:40:12;7.75;;;3.63;;
74541;SDS011;63015;45.378;20.360;2023-03-29T05:42:32;6.72;;;2.92;;
74541;SDS011;63015;45.378;20.360;2023-03-29T05:44:40;7.38;;;2.40;;
74541;SDS011;63015;45.378;20.360;2023-03-29T05:46:49;10.63;;;2.95;;
74541;SDS011;63015;45.378;20.360;2023-03-29T05:48:51;12.73;;;3.35;;
74541;SDS011;63015;45.378;20.360;2023-03-29T05:50:54;8.68;;;3.00;;
74541;SDS011;63015;45.378;20.360;2023-03-29T05:52:57;6.32;;;2.63;;
74541;SDS011;63015;45.378;20.360;2023-03-29T05:54:58;9.07;;;2.92;;
74541;SDS011;63015;45.378;20.360;2023-03-29T05:56:59;6.70;;;2.22;;
74541;SDS011;63015;45.378;20.360;2023-03-29T05:59:00;10.65;;;3.35;;
74541;SDS011;63015;45.378;20.360;2023-03-29T06:01:01;6.03;;;2.20;;
74541;SDS011;63015;45.378;20.360;2023-03-29T06:03:21;6.28;;;2.80;;
74541;SDS011;63015;45.378;20.360;2023-03-29T06:05:24;6.75;;;3.13;;
74541;SDS011;63015;45.378;20.360;2023-03-29T06:07:33;7.18;;;2.70;;
74541;SDS011;63015;45.378;20.360;2023-03-29T06:10:06;6.93;;;2.72;;
74541;SDS011;63015;45.378;20.360;2023-03-29T06:12:14;8.32;;;2.63;;
74541;SDS011;63015;45.378;20.360;2023-03-29T06:14:35;7.72;;;2.80;;
74541;SDS011;63015;45.378;20.360;2023-03-29T06:16:59;5.47;;;2.38;;
74541;SDS011;63015;45.378;20.360;2023-03-29T06:19:01;5.22;;;2.28;;
74541;SDS011;63015;45.378;20.360;2023-03-29T06:21:03;3.83;;;1.50;;
74541;SDS011;63015;45.378;20.360;2023-03-29T06:23:03;7.63;;;3.10;;
74541;SDS011;63015;45.378;20.360;2023-03-29T06:25:04;7.88;;;2.60;;
74541;SDS011;63015;45.378;20.360;2023-03-29T06:27:07;7.30;;;2.47;;
74541;SDS011;63015;45.378;20.360;2023-03-29T06:29:10;7.22;;;2.45;;
74541;SDS011;63015;45.378;20.360;2023-03-29T06:31:13;7.20;;;3.17;;
74541;SDS011;63015;45.378;20.360;2023-03-29T06:33:14;6.30;;;2.50;;
74541;SDS011;63015;45.378;20.360;2023-03-29T06:35:23;6.43;;;2.72;;
74541;SDS011;63015;45.378;20.360;2023-03-29T06:37:29;5.65;;;2.50;;
74541;SDS011;63015;45.378;20.360;2023-03-29T06:39:51;8.82;;;1.67;;
74541;SDS011;63015;45.378;20.360;2023-03-29T06:41:58;5.68;;;2.20;;
74541;SDS011;63015;45.378;20.360;2023-03-29T06:44:37;4.82;;;2.10;;
74541;SDS011;63015;45.378;20.360;2023-03-29T06:46:45;4.78;;;1.75;;
74541;SDS011;63015;45.378;20.360;2023-03-29T06:48:48;5.85;;;2.30;;
74541;SDS011;63015;45.378;20.360;2023-03-29T06:50:49;7.30;;;1.85;;
74541;SDS011;63015;45.378;20.360;2023-03-29T06:52:51;5.03;;;2.70;;
74541;SDS011;63015;45.378;20.360;2023-03-29T06:54:51;5.57;;;2.70;;
74541;SDS011;63015;45.378;20.360;2023-03-29T06:56:52;5.57;;;1.80;;
74541;SDS011;63015;45.378;20.360;2023-03-29T06:58:54;4.22;;;2.28;;
74541;SDS011;63015;45.378;20.360;2023-03-29T07:01:10;4.28;;;1.83;;
74541;SDS011;63015;45.378;20.360;2023-03-29T07:03:41;5.35;;;2.22;;
74541;SDS011;63015;45.378;20.360;2023-03-29T07:05:42;5.65;;;2.20;;
74541;SDS011;63015;45.378;20.360;2023-03-29T07:07:47;5.53;;;2.28;;
74541;SDS011;63015;45.378;20.360;2023-03-29T07:10:15;4.07;;;1.80;;
74541;SDS011;63015;45.378;20.360;2023-03-29T07:12:35;4.63;;;2.13;;
74541;SDS011;63015;45.378;20.360;2023-03-29T07:14:36;2.55;;;0.85;;
74541;SDS011;63015;45.378;20.360;2023-03-29T07:16:37;4.07;;;1.88;;
74541;SDS011;63015;45.378;20.360;2023-03-29T07:18:50;2.58;;;1.30;;
74541;SDS011;63015;45.378;20.360;2023-03-29T07:21:11;2.72;;;1.17;;
74541;SDS011;63015;45.378;20.360;2023-03-29T07:23:12;8.07;;;1.80;;
74541;SDS011;63015;45.378;20.360;2023-03-29T07:25:12;2.35;;;0.95;;
74541;SDS011;63015;45.378;20.360;2023-03-29T07:27:14;4.90;;;1.83;;
74541;SDS011;63015;45.378;20.360;2023-03-29T07:29:21;2.40;;;0.82;;
74541;SDS011;63015;45.378;20.360;2023-03-29T07:31:22;5.45;;;1.98;;
74541;SDS011;63015;45.378;20.360;2023-03-29T07:33:28;5.20;;;2.30;;
74541;SDS011;63015;45.378;20.360;2023-03-29T07:35:33;4.13;;;1.30;;
74541;SDS011;63015;45.378;20.360;2023-03-29T07:37:35;4.95;;;2.00;;
74541;SDS011;63015;45.378;20.360;2023-03-29T07:39:37;4.85;;;2.20;;
74541;SDS011;63015;45.378;20.360;2023-03-29T07:42:06;6.78;;;2.38;;
74541;SDS011;63015;45.378;20.360;2023-03-29T07:44:07;3.78;;;1.77;;
74541;SDS011;63015;45.378;20.360;2023-03-29T07:46:09;4.68;;;1.02;;
74541;SDS011;63015;45.378;20.360;2023-03-29T07:48:11;3.42;;;1.65;;
74541;SDS011;63015;45.378;20.360;2023-03-29T07:50:21;4.75;;;1.92;;
74541;SDS011;63015;45.378;20.360;2023-03-29T07:52:22;3.35;;;1.75;;
74541;SDS011;63015;45.378;20.360;2023-03-29T07:54:24;4.50;;;1.73;;
74541;SDS011;63015;45.378;20.360;2023-03-29T07:56:50;3.40;;;1.35;;
74541;SDS011;63015;45.378;20.360;2023-03-29T07:59:16;5.25;;;2.78;;
74541;SDS011;63015;45.378;20.360;2023-03-29T08:01:22;4.55;;;1.45;;
74541;SDS011;63015;45.378;20.360;2023-03-29T08:03:42;3.92;;;1.83;;
74541;SDS011;63015;45.378;20.360;2023-03-29T08:05:42;5.15;;;1.90;;
74541;SDS011;63015;45.378;20.360;2023-03-29T08:07:45;5.28;;;2.28;;
74541;SDS011;63015;45.378;20.360;2023-03-29T08:09:58;3.42;;;1.85;;
74541;SDS011;63015;45.378;20.360;2023-03-29T08:12:28;5.43;;;1.80;;
74541;SDS011;63015;45.378;20.360;2023-03-29T08:16:37;6.13;;;3.42;;
74541;SDS011;63015;45.378;20.360;2023-03-29T08:18:43;11.00;;;3.40;;
74541;SDS011;63015;45.378;20.360;2023-03-29T08:20:44;4.53;;;1.65;;
74541;SDS011;63015;45.378;20.360;2023-03-29T08:22:45;5.32;;;2.78;;
74541;SDS011;63015;45.378;20.360;2023-03-29T08:25:22;6.20;;;3.22;;
74541;SDS011;63015;45.378;20.360;2023-03-29T08:27:26;7.57;;;4.30;;
74541;SDS011;63015;45.378;20.360;2023-03-29T08:29:27;5.45;;;2.63;;
74541;SDS011;63015;45.378;20.360;2023-03-29T08:31:28;6.75;;;2.78;;
74541;SDS011;63015;45.378;20.360;2023-03-29T08:33:30;3.83;;;2.00;;
74541;SDS011;63015;45.378;20.360;2023-03-29T08:35:50;4.10;;;1.92;;
74541;SDS011;63015;45.378;20.360;2023-03-29T08:38:03;6.72;;;2.22;;
74541;SDS011;63015;45.378;20.360;2023-03-29T08:40:04;4.15;;;1.83;;
74541;SDS011;63015;45.378;20.360;2023-03-29T08:47:21;4.40;;;2.20;;
74541;SDS011;63015;45.378;20.360;2023-03-29T08:49:35;4.05;;;1.90;;
74541;SDS011;63015;45.378;20.360;2023-03-29T08:51:44;3.70;;;2.05;;
74541;SDS011;63015;45.378;20.360;2023-03-29T08:53:50;3.80;;;2.15;;
74541;SDS011;63015;45.378;20.360;2023-03-29T08:56:22;5.80;;;2.25;;
74541;SDS011;63015;45.378;20.360;2023-03-29T08:58:31;5.13;;;2.40;;
74541;SDS011;63015;45.378;20.360;2023-03-29T09:01:19;4.78;;;2.50;;
74541;SDS011;63015;45.378;20.360;2023-03-29T09:03:00;3.63;;;2.25;;
74541;SDS011;63015;45.378;20.360;2023-03-29T09:05:12;6.07;;;2.20;;
74541;SDS011;63015;45.378;20.360;2023-03-29T09:07:48;4.00;;;2.00;;
74541;SDS011;63015;45.378;20.360;2023-03-29T09:09:49;3.90;;;1.88;;
74541;SDS011;63015;45.378;20.360;2023-03-29T09:14:38;4.47;;;2.58;;
74541;SDS011;63015;45.378;20.360;2023-03-29T09:24:03;6.57;;;2.03;;
74541;SDS011;63015;45.378;20.360;2023-03-29T09:31:02;3.33;;;2.05;;
74541;SDS011;63015;45.378;20.360;2023-03-29T09:33:17;4.47;;;1.92;;
74541;SDS011;63015;45.378;20.360;2023-03-29T09:35:36;6.70;;;1.80;;
74541;SDS011;63015;45.378;20.360;2023-03-29T09:37:46;4.50;;;1.90;;
74541;SDS011;63015;45.378;20.360;2023-03-29T09:39:50;4.10;;;1.70;;
74541;SDS011;63015;45.378;20.360;2023-03-29T09:42:01;3.47;;;1.30;;
74541;SDS011;63015;45.378;20.360;2023-03-29T09:44:06;5.10;;;2.17;;
74541;SDS011;63015;45.378;20.360;2023-03-29T09:46:13;4.82;;;1.77;;
74541;SDS011;63015;45.378;20.360;2023-03-29T09:48:28;3.45;;;1.60;;
74541;SDS011;63015;45.378;20.360;2023-03-29T09:50:35;3.85;;;1.33;;
74541;SDS011;63015;45.378;20.360;2023-03-29T09:52:41;4.68;;;1.83;;
74541;SDS011;63015;45.378;20.360;2023-03-29T09:54:50;5.22;;;1.83;;
74541;SDS011;63015;45.378;20.360;2023-03-29T09:57:11;3.78;;;1.73;;
74541;SDS011;63015;45.378;20.360;2023-03-29T09:59:14;4.55;;;1.60;;
74541;SDS011;63015;45.378;20.360;2023-03-29T10:01:15;5.55;;;1.52;;
74541;SDS011;63015;45.378;20.360;2023-03-29T10:03:23;4.05;;;1.40;;
74541;SDS011;63015;45.378;20.360;2023-03-29T10:05:34;6.22;;;2.40;;
74541;SDS011;63015;45.378;20.360;2023-03-29T10:09:47;4.53;;;1.20;;
74541;SDS011;63015;45.378;20.360;2023-03-29T10:11:54;4.75;;;1.35;;
74541;SDS011;63015;45.378;20.360;2023-03-29T10:14:00;3.50;;;1.40;;
74541;SDS011;63015;45.378;20.360;2023-03-29T10:16:04;3.05;;;0.80;;
74541;SDS011;63015;45.378;20.360;2023-03-29T10:18:07;3.88;;;1.13;;
74541;SDS011;63015;45.378;20.360;2023-03-29T10:20:13;3.63;;;1.50;;
74541;SDS011;63015;45.378;20.360;2023-03-29T10:22:18;4.43;;;1.52;;
74541;SDS011;63015;45.378;20.360;2023-03-29T10:24:23;3.67;;;1.33;;
74541;SDS011;63015;45.378;20.360;2023-03-29T10:26:30;4.20;;;1.45;;
74541;SDS011;63015;45.378;20.360;2023-03-29T10:28:32;5.70;;;1.73;;
74541;SDS011;63015;45.378;20.360;2023-03-29T10:30:36;2.92;;;1.00;;
74541;SDS011;63015;45.378;20.360;2023-03-29T10:32:38;5.82;;;1.25;;
74541;SDS011;63015;45.378;20.360;2023-03-29T10:34:39;5.40;;;0.90;;
74541;SDS011;63015;45.378;20.360;2023-03-29T10:36:41;5.10;;;1.60;;
74541;SDS011;63015;45.378;20.360;2023-03-29T10:38:45;5.00;;;1.05;;
74541;SDS011;63015;45.378;20.360;2023-03-29T10:40:46;3.55;;;1.40;;
74541;SDS011;63015;45.378;20.360;2023-03-29T10:42:49;2.90;;;1.10;;
74541;SDS011;63015;45.378;20.360;2023-03-29T10:44:51;3.90;;;1.20;;
74541;SDS011;63015;45.378;20.360;2023-03-29T10:46:54;4.63;;;1.27;;
74541;SDS011;63015;45.378;20.360;2023-03-29T10:48:59;4.18;;;1.50;;
74541;SDS011;63015;45.378;20.360;2023-03-29T10:51:05;4.45;;;1.50;;
74541;SDS011;63015;45.378;20.360;2023-03-29T10:53:27;4.10;;;1.60;;
74541;SDS011;63015;45.378;20.360;2023-03-29T10:55:34;3.35;;;1.20;;
74541;SDS011;63015;45.378;20.360;2023-03-29T10:57:51;2.72;;;0.80;;
74541;SDS011;63015;45.378;20.360;2023-03-29T11:00:16;4.72;;;1.48;;
74541;SDS011;63015;45.378;20.360;2023-03-29T11:02:27;4.18;;;1.58;;
74541;SDS011;63015;45.378;20.360;2023-03-29T11:14:11;4.85;;;1.55;;
74541;SDS011;63015;45.378;20.360;2023-03-29T11:30:19;3.90;;;1.80;;
74541;SDS011;63015;45.378;20.360;2023-03-29T11:32:44;4.47;;;1.58;;
74541;SDS011;63015;45.378;20.360;2023-03-29T11:37:34;6.30;;;2.17;;
74541;SDS011;63015;45.378;20.360;2023-03-29T11:43:59;4.00;;;1.60;;
74541;SDS011;63015;45.378;20.360;2023-03-29T11:46:02;4.78;;;1.50;;
74541;SDS011;63015;45.378;20.360;2023-03-29T11:48:13;5.93;;;2.17;;
74541;SDS011;63015;45.378;20.360;2023-03-29T11:52:32;4.57;;;1.80;;
74541;SDS011;63015;45.378;20.360;2023-03-29T11:54:40;5.75;;;1.85;;
74541;SDS011;63015;45.378;20.360;2023-03-29T11:57:10;5.22;;;2.00;;
74541;SDS011;63015;45.378;20.360;2023-03-29T12:01:41;4.43;;;1.48;;
74541;SDS011;63015;45.378;20.360;2023-03-29T12:03:49;4.20;;;1.55;;
74541;SDS011;63015;45.378;20.360;2023-03-29T12:05:58;5.10;;;2.00;;
74541;SDS011;63015;45.378;20.360;2023-03-29T12:08:06;4.93;;;1.60;;
74541;SDS011;63015;45.378;20.360;2023-03-29T12:10:20;5.30;;;2.00;;
74541;SDS011;63015;45.378;20.360;2023-03-29T12:12:27;5.38;;;2.00;;
74541;SDS011;63015;45.378;20.360;2023-03-29T12:15:14;4.57;;;1.80;;
74541;SDS011;63015;45.378;20.360;2023-03-29T12:17:20;5.50;;;1.80;;
74541;SDS011;63015;45.378;20.360;2023-03-29T12:19:44;4.32;;;1.88;;
74541;SDS011;63015;45.378;20.360;2023-03-29T12:22:08;5.50;;;1.80;;
74541;SDS011;63015;45.378;20.360;2023-03-29T12:24:14;5.13;;;2.00;;
74541;SDS011;63015;45.378;20.360;2023-03-29T12:36:13;7.20;;;2.00;;
74541;SDS011;63015;45.378;20.360;2023-03-29T12:39:12;4.97;;;1.80;;
74541;SDS011;63015;45.378;20.360;2023-03-29T12:41:47;3.13;;;1.13;;
74541;SDS011;63015;45.378;20.360;2023-03-29T12:44:21;5.22;;;1.60;;
74541;SDS011;63015;45.378;20.360;2023-03-29T12:46:30;3.20;;;1.30;;
74541;SDS011;63015;45.378;20.360;2023-03-29T12:48:32;6.75;;;1.85;;
74541;SDS011;63015;45.378;20.360;2023-03-29T12:50:39;5.05;;;1.95;;
74541;SDS011;63015;45.378;20.360;2023-03-29T12:52:47;4.47;;;1.67;;
74541;SDS011;63015;45.378;20.360;2023-03-29T12:54:52;4.72;;;2.15;;
74541;SDS011;63015;45.378;20.360;2023-03-29T12:56:58;4.80;;;1.80;;
74541;SDS011;63015;45.378;20.360;2023-03-29T12:59:06;5.10;;;1.55;;
74541;SDS011;63015;45.378;20.360;2023-03-29T13:05:57;4.68;;;1.50;;
74541;SDS011;63015;45.378;20.360;2023-03-29T13:08:09;5.85;;;1.98;;
74541;SDS011;63015;45.378;20.360;2023-03-29T13:10:29;5.22;;;1.90;;
74541;SDS011;63015;45.378;20.360;2023-03-29T13:12:39;4.93;;;1.55;;
74541;SDS011;63015;45.378;20.360;2023-03-29T13:14:43;7.22;;;1.80;;
74541;SDS011;63015;45.378;20.360;2023-03-29T13:16:48;6.25;;;2.13;;
74541;SDS011;63015;45.378;20.360;2023-03-29T13:18:53;5.20;;;1.52;;
74541;SDS011;63015;45.378;20.360;2023-03-29T13:33:16;5.30;;;1.48;;
74541;SDS011;63015;45.378;20.360;2023-03-29T13:37:34;4.40;;;1.35;;
74541;SDS011;63015;45.378;20.360;2023-03-29T13:39:46;4.50;;;1.65;;
74541;SDS011;63015;45.378;20.360;2023-03-29T13:41:50;5.43;;;1.50;;
74541;SDS011;63015;45.378;20.360;2023-03-29T13:43:53;4.10;;;1.40;;
74541;SDS011;63015;45.378;20.360;2023-03-29T13:48:03;3.95;;;1.80;;
74541;SDS011;63015;45.378;20.360;2023-03-29T13:50:28;5.97;;;1.48;;
74541;SDS011;63015;45.378;20.360;2023-03-29T13:55:04;5.05;;;1.77;;
74541;SDS011;63015;45.378;20.360;2023-03-29T13:57:15;5.10;;;1.77;;
74541;SDS011;63015;45.378;20.360;2023-03-29T13:59:19;7.32;;;2.05;;
74541;SDS011;63015;45.378;20.360;2023-03-29T14:01:40;5.05;;;1.90;;
74541;SDS011;63015;45.378;20.360;2023-03-29T14:03:47;6.82;;;1.90;;
74541;SDS011;63015;45.378;20.360;2023-03-29T14:05:52;4.43;;;1.95;;
74541;SDS011;63015;45.378;20.360;2023-03-29T14:08:00;5.25;;;1.60;;
74541;SDS011;63015;45.378;20.360;2023-03-29T14:10:25;4.32;;;1.80;;
74541;SDS011;63015;45.378;20.360;2023-03-29T14:12:35;6.78;;;2.35;;
74541;SDS011;63015;45.378;20.360;2023-03-29T14:14:38;7.30;;;2.38;;
74541;SDS011;63015;45.378;20.360;2023-03-29T14:16:41;5.05;;;2.03;;
74541;SDS011;63015;45.378;20.360;2023-03-29T14:18:42;5.47;;;1.50;;
74541;SDS011;63015;45.378;20.360;2023-03-29T14:20:50;4.72;;;1.98;;
74541;SDS011;63015;45.378;20.360;2023-03-29T14:22:54;5.78;;;2.08;;
74541;SDS011;63015;45.378;20.360;2023-03-29T14:24:54;4.13;;;1.92;;
74541;SDS011;63015;45.378;20.360;2023-03-29T14:26:57;5.10;;;1.92;;
74541;SDS011;63015;45.378;20.360;2023-03-29T14:29:01;4.55;;;2.03;;
74541;SDS011;63015;45.378;20.360;2023-03-29T14:31:02;4.72;;;1.88;;
74541;SDS011;63015;45.378;20.360;2023-03-29T14:33:02;7.68;;;2.75;;
74541;SDS011;63015;45.378;20.360;2023-03-29T14:35:04;7.63;;;2.40;;